createdAt,value
2023-01-08T00:01:42.267Z,98889.41
2023-01-08T00:05:45.014Z,98891.28
2023-01-08T00:09:46.405Z,98889.97
2023-01-08T00:13:47.816Z,98888.84
2023-01-08T00:17:49.206Z,98880.53
2023-01-08T00:21:51.927Z,98872.84
2023-01-08T00:25:53.347Z,98873.06
2023-01-08T00:29:54.751Z,98860.78
2023-01-08T00:33:56.292Z,98867.88
2023-01-08T00:37:59.027Z,98862.38
2023-01-08T00:42:00.410Z,98854.91
2023-01-08T00:46:01.870Z,98858.75
2023-01-08T00:50:03.993Z,98842.84
2023-01-08T00:54:06.947Z,98834.13
2023-01-08T00:58:08.349Z,98838.31
2023-01-08T01:02:10.368Z,98834.25
2023-01-08T01:06:13.478Z,98826.53
2023-01-08T01:10:17.146Z,98816.47
2023-01-08T01:14:18.634Z,98806.22
2023-01-08T01:18:20.061Z,98801.09
2023-01-08T01:22:21.462Z,98802.59
2023-01-08T01:26:25.114Z,98811.19
2023-01-08T01:30:26.514Z,98810.88
2023-01-08T01:34:27.918Z,98812.88
2023-01-08T01:38:29.519Z,98801.31
2023-01-08T01:42:32.291Z,98811.81
2023-01-08T01:46:37.194Z,98814.81
2023-01-08T01:50:44.036Z,98816.25
2023-01-08T01:54:45.566Z,98804.13
2023-01-08T01:58:48.319Z,98797.47
2023-01-08T02:02:50.826Z,98792.88
2023-01-08T02:07:00.129Z,98783.31
2023-01-08T02:11:09.737Z,98780.44
2023-01-08T02:15:16.412Z,98779.59
2023-01-08T02:19:30.319Z,98766.75
2023-01-08T02:23:41.584Z,98763.28
2023-01-08T02:27:47.620Z,98771.72
2023-01-08T02:31:49.426Z,98766.59
2023-01-08T02:35:54.446Z,98765.75
2023-01-08T02:40:05.844Z,98768.25
2023-01-08T02:44:17.350Z,98779.53
2023-01-08T02:48:27.781Z,98782.56
2023-01-08T02:52:32.601Z,98771.53
2023-01-08T02:56:37.720Z,98774.34
2023-01-08T03:00:44.336Z,98772.69
2023-01-08T03:04:52.623Z,98771.41
2023-01-08T03:08:54.767Z,98762.06
2023-01-08T03:13:01.531Z,98754.75
2023-01-08T03:17:08.871Z,98751.22
2023-01-08T03:21:11.557Z,98748.06
2023-01-08T03:25:15.853Z,98747.59
2023-01-08T03:29:20.968Z,98740.53
2023-01-08T03:33:25.347Z,98752.19
2023-01-08T03:37:30.476Z,98735.09
2023-01-08T03:41:34.880Z,98731.63
2023-01-08T03:45:38.837Z,98723.97
2023-01-08T03:49:43.696Z,98721.38
2023-01-08T03:53:45.105Z,98716.41
2023-01-08T03:57:46.559Z,98697.59
2023-01-08T04:01:48.076Z,98695.63
2023-01-08T04:05:50.858Z,98691.09
2023-01-08T04:09:52.244Z,98687.31
2023-01-08T04:13:53.683Z,98689.91
2023-01-08T04:17:55.178Z,98677.00
2023-01-08T04:21:57.982Z,98679.06
2023-01-08T04:25:59.403Z,98681.88
2023-01-08T04:30:00.805Z,98691.81
2023-01-08T04:34:02.846Z,98689.59
2023-01-08T04:38:05.645Z,98689.13
2023-01-08T04:42:07.044Z,98690.66
2023-01-08T04:46:08.478Z,98687.78
2023-01-08T04:50:10.326Z,98687.19
2023-01-08T04:54:13.063Z,98682.06
2023-01-08T04:58:14.728Z,98690.06
2023-01-08T05:02:16.281Z,98690.81
2023-01-08T05:06:17.817Z,98701.66
2023-01-08T05:10:20.553Z,98697.41
2023-01-08T05:14:22.019Z,98692.00
2023-01-08T05:18:23.437Z,98678.75
2023-01-08T05:22:24.956Z,98671.06
2023-01-08T05:26:27.664Z,98684.63
2023-01-08T05:30:29.784Z,98684.25
2023-01-08T05:34:31.185Z,98682.22
2023-01-08T05:38:32.671Z,98670.09
2023-01-08T05:42:35.934Z,98663.25
2023-01-08T05:46:37.463Z,98666.31
2023-01-08T05:50:38.931Z,98663.00
2023-01-08T05:54:40.329Z,98657.66
2023-01-08T05:58:43.128Z,98660.84
2023-01-08T06:02:46.929Z,98653.16
2023-01-08T06:06:48.379Z,98650.69
2023-01-08T06:10:49.776Z,98637.50
2023-01-08T06:14:52.509Z,98641.03
2023-01-08T06:18:53.906Z,98649.31
2023-01-08T06:22:56.481Z,98648.78
2023-01-08T06:26:57.960Z,98642.38
2023-01-08T06:31:01.690Z,98632.22
2023-01-08T06:35:03.405Z,98639.59
2023-01-08T06:39:05.536Z,98641.28
2023-01-08T06:43:06.933Z,98644.59
2023-01-08T06:47:09.645Z,98640.06
2023-01-08T06:51:11.031Z,98643.53
2023-01-08T06:55:12.421Z,98653.81
2023-01-08T06:59:13.812Z,98655.03
2023-01-08T07:03:16.880Z,98664.00
2023-01-08T07:07:18.303Z,98673.78
2023-01-08T07:11:19.674Z,98666.84
2023-01-08T07:15:21.059Z,98664.13
2023-01-08T07:19:23.841Z,98669.53
2023-01-08T07:23:25.233Z,98676.66
2023-01-08T07:27:26.655Z,98676.19
2023-01-08T07:31:28.121Z,98676.53
2023-01-08T07:35:30.917Z,98667.72
2023-01-08T07:39:32.327Z,98663.03
2023-01-08T07:43:33.772Z,98664.69
2023-01-08T07:47:35.198Z,98655.66
2023-01-08T07:51:38.076Z,98648.69
2023-01-08T07:55:39.482Z,98646.13
2023-01-08T07:59:40.894Z,98639.47
2023-01-08T08:03:42.665Z,98647.75
2023-01-08T08:07:45.454Z,98645.63
2023-01-08T08:11:46.915Z,98643.53
2023-01-08T08:15:48.398Z,98640.22
2023-01-08T08:19:49.836Z,98632.91
2023-01-08T08:23:52.537Z,98641.28
2023-01-08T08:27:56.706Z,98633.13
2023-01-08T08:31:58.137Z,98624.66
2023-01-08T08:35:59.611Z,98616.31
2023-01-08T08:40:02.395Z,98615.25
2023-01-08T08:44:04.064Z,98606.03
2023-01-08T08:48:07.223Z,98602.97
2023-01-08T08:52:08.660Z,98600.28
2023-01-08T08:56:11.486Z,98597.44
2023-01-08T09:00:14.360Z,98597.81
2023-01-08T09:04:15.788Z,98600.63
2023-01-08T09:08:17.239Z,98599.13
2023-01-08T09:12:19.986Z,98599.84
2023-01-08T09:16:21.456Z,98590.75
2023-01-08T09:20:23.955Z,98590.59
2023-01-08T09:24:25.392Z,98594.25
2023-01-08T09:28:28.206Z,98583.28
2023-01-08T09:32:29.665Z,98577.72
2023-01-08T09:36:31.252Z,98568.13
2023-01-08T09:40:37.849Z,98571.34
2023-01-08T09:44:45.767Z,98565.75
2023-01-08T09:48:48.441Z,98571.03
2023-01-08T09:52:49.899Z,98574.72
2023-01-08T09:56:51.897Z,98572.69
2023-01-08T10:00:55.020Z,98566.44
2023-01-08T10:04:59.159Z,98578.13
2023-01-08T10:09:00.620Z,98578.50
2023-01-08T10:13:02.402Z,98573.38
2023-01-08T10:17:12.745Z,98569.03
2023-01-08T10:21:14.957Z,98563.84
2023-01-08T10:25:19.507Z,98551.78
2023-01-08T10:29:20.919Z,98562.09
2023-01-08T10:33:26.776Z,98562.09
2023-01-08T10:37:31.421Z,98547.41
2023-01-08T10:41:37.690Z,98545.63
2023-01-08T10:45:39.194Z,98532.19
2023-01-08T10:49:44.797Z,98533.81
2023-01-08T10:53:46.559Z,98514.78
2023-01-08T10:57:54.423Z,98514.66
2023-01-08T11:01:58.084Z,98503.63
2023-01-08T11:06:10.916Z,98508.00
2023-01-08T11:10:22.570Z,98510.06
2023-01-08T11:14:27.833Z,98519.75
2023-01-08T11:18:29.923Z,98521.38
2023-01-08T11:22:32.750Z,98522.47
2023-01-08T11:26:35.713Z,98531.69
2023-01-08T11:30:39.130Z,98534.19
2023-01-08T11:34:51.861Z,98532.56
2023-01-08T11:38:54.669Z,98530.03
2023-01-08T11:43:10.817Z,98501.09
2023-01-08T11:47:18.992Z,98496.22
2023-01-08T11:51:50.939Z,98486.81
2023-01-08T11:56:07.742Z,98478.09
2023-01-08T12:00:20.906Z,98485.63
2023-01-08T12:04:42.255Z,98472.72
2023-01-08T12:08:53.786Z,98462.44
2023-01-08T12:13:05.746Z,98455.59
2023-01-08T12:17:19.743Z,98447.13
2023-01-08T12:21:30.387Z,98439.72
2023-01-08T12:25:51.168Z,98448.59
2023-01-08T12:30:06.221Z,98445.31
2023-01-08T12:34:12.182Z,98453.13
2023-01-08T12:38:21.425Z,98452.06
2023-01-08T12:42:28.082Z,98445.56
2023-01-08T12:46:34.461Z,98447.94
2023-01-08T12:50:46.757Z,98447.63
2023-01-08T12:54:54.584Z,98430.94
2023-01-08T12:59:11.165Z,98426.19
2023-01-08T13:03:21.766Z,98422.06
2023-01-08T13:07:26.686Z,98427.19
2023-01-08T13:11:30.486Z,98424.69
2023-01-08T13:15:33.303Z,98428.31
2023-01-08T13:19:41.678Z,98427.50
2023-01-08T13:23:43.484Z,98413.47
2023-01-08T13:27:45.959Z,98403.41
2023-01-08T13:31:47.474Z,98394.94
2023-01-08T13:35:50.543Z,98396.50
2023-01-08T13:39:51.967Z,98389.88
2023-01-08T13:44:00.055Z,98391.56
2023-01-08T13:48:01.529Z,98388.25
2023-01-08T13:52:05.396Z,98382.66
2023-01-08T13:56:08.620Z,98377.06
2023-01-08T14:00:19.596Z,98369.31
2023-01-08T14:04:21.920Z,98372.25
2023-01-08T14:08:26.224Z,98368.53
2023-01-08T14:12:27.863Z,98375.56
2023-01-08T14:16:29.393Z,98365.13
2023-01-08T14:20:33.753Z,98366.84
2023-01-08T14:24:36.662Z,98378.44
2023-01-08T14:28:38.102Z,98378.94
2023-01-08T14:32:43.272Z,98376.13
2023-01-08T14:36:45.366Z,98378.78
2023-01-08T14:41:00.001Z,98376.19
2023-01-08T14:45:04.909Z,98374.59
2023-01-08T14:49:06.333Z,98365.88
2023-01-08T14:53:15.114Z,98365.66
2023-01-08T14:57:19.838Z,98361.44
2023-01-08T15:01:24.850Z,98360.38
2023-01-08T15:05:28.724Z,98365.94
2023-01-08T15:09:32.024Z,98363.13
2023-01-08T15:13:36.631Z,98369.63
2023-01-08T15:17:40.281Z,98383.19
2023-01-08T15:21:47.283Z,98383.44
2023-01-08T15:25:48.743Z,98373.53
2023-01-08T15:29:53.772Z,98371.38
2023-01-08T15:33:55.628Z,98373.03
2023-01-08T15:37:57.115Z,98382.69
2023-01-08T15:42:01.085Z,98394.53
2023-01-08T15:46:04.005Z,98394.53
2023-01-08T15:50:06.946Z,98391.22
2023-01-08T15:54:11.516Z,98387.09
2023-01-08T15:58:13.653Z,98378.72
2023-01-08T16:02:16.677Z,98374.72
2023-01-08T16:06:18.163Z,98381.59
2023-01-08T16:10:19.870Z,98382.78
2023-01-08T16:14:21.349Z,98378.19
2023-01-08T16:18:24.235Z,98367.22
2023-01-08T16:22:25.681Z,98364.41
2023-01-08T16:26:27.346Z,98379.50
2023-01-08T16:30:28.858Z,98386.22
2023-01-08T16:34:31.606Z,98384.44
2023-01-08T16:38:33.703Z,98373.13
2023-01-08T16:42:35.208Z,98382.66
2023-01-08T16:46:36.633Z,98382.66
2023-01-08T16:50:39.556Z,98374.78
2023-01-08T16:54:41.131Z,98376.06
2023-01-08T16:58:42.636Z,98359.44
2023-01-08T17:02:44.123Z,98364.78
2023-01-08T17:06:47.080Z,98362.06
2023-01-08T17:10:48.600Z,98365.94
2023-01-08T17:14:50.297Z,98380.31
2023-01-08T17:18:51.797Z,98358.72
2023-01-08T17:22:57.314Z,98348.16
2023-01-08T17:26:58.812Z,98344.13
2023-01-08T17:31:02.374Z,98338.69
2023-01-08T17:35:04.551Z,98336.94
2023-01-08T17:39:07.471Z,98332.91
2023-01-08T17:43:08.890Z,98323.91
2023-01-08T17:47:10.335Z,98308.94
2023-01-08T17:51:11.760Z,98306.00
2023-01-08T17:55:14.547Z,98293.94
2023-01-08T17:59:17.759Z,98284.03
2023-01-08T18:03:19.216Z,98276.88
2023-01-08T18:07:20.667Z,98262.13
2023-01-08T18:11:23.558Z,98262.50
2023-01-08T18:15:25.000Z,98257.22
2023-01-08T18:19:26.421Z,98262.09
2023-01-08T18:23:27.977Z,98254.28
2023-01-08T18:27:30.695Z,98245.72
2023-01-08T18:31:32.164Z,98257.16
2023-01-08T18:35:33.600Z,98260.94
2023-01-08T18:39:34.974Z,98247.16
2023-01-08T18:43:37.986Z,98251.25
2023-01-08T18:47:39.396Z,98266.34
2023-01-08T18:51:40.845Z,98264.81
2023-01-08T18:55:42.307Z,98259.28
2023-01-08T18:59:45.440Z,98245.59
2023-01-08T19:03:46.962Z,98244.66
2023-01-08T19:07:48.551Z,98237.72
2023-01-08T19:11:49.953Z,98243.38
2023-01-08T19:15:52.664Z,98245.88
2023-01-08T19:19:54.051Z,98242.09
2023-01-08T19:23:55.461Z,98238.31
2023-01-08T19:27:56.869Z,98240.91
2023-01-08T19:31:59.586Z,98247.50
2023-01-08T19:36:01.828Z,98245.50
2023-01-08T19:40:03.569Z,98245.25
2023-01-08T19:44:06.015Z,98246.44
2023-01-08T19:48:08.784Z,98247.03
2023-01-08T19:52:10.203Z,98237.84
2023-01-08T19:56:13.672Z,98232.66
2023-01-08T20:00:16.277Z,98221.69
2023-01-08T20:04:19.026Z,98212.03
2023-01-08T20:08:20.729Z,98220.25
2023-01-08T20:12:22.809Z,98209.78
2023-01-08T20:16:24.260Z,98198.97
2023-01-08T20:20:27.068Z,98202.25
2023-01-08T20:24:28.464Z,98189.06
2023-01-08T20:28:29.873Z,98175.63
2023-01-08T20:32:31.301Z,98172.69
2023-01-08T20:36:34.646Z,98166.19
2023-01-08T20:40:36.773Z,98160.19
2023-01-08T20:44:38.174Z,98158.53
2023-01-08T20:48:46.936Z,98154.97
2023-01-08T20:52:50.259Z,98147.09
2023-01-08T20:56:51.710Z,98155.44
2023-01-08T21:00:53.187Z,98159.13
2023-01-08T21:04:54.683Z,98163.84
2023-01-08T21:08:59.770Z,98165.75
2023-01-08T21:13:01.310Z,98147.47
2023-01-08T21:17:02.738Z,98139.47
2023-01-08T21:21:05.445Z,98141.22
2023-01-08T21:25:09.484Z,98136.31
2023-01-08T21:29:10.900Z,98130.88
2023-01-08T21:33:12.304Z,98119.81
2023-01-08T21:37:13.745Z,98101.78
2023-01-08T21:41:19.013Z,98100.59
2023-01-08T21:45:20.413Z,98088.56
2023-01-08T21:49:21.845Z,98077.03
2023-01-08T21:53:23.285Z,98059.13
2023-01-08T21:57:26.857Z,98062.44
2023-01-08T22:01:28.701Z,98054.53
2023-01-08T22:05:30.137Z,98053.97
2023-01-08T22:09:31.543Z,98049.13
2023-01-08T22:13:34.391Z,98051.94
2023-01-08T22:17:36.231Z,98043.69
2023-01-08T22:21:37.624Z,98049.13
2023-01-08T22:25:39.654Z,98033.69
2023-01-08T22:29:42.380Z,98034.53
2023-01-08T22:33:43.816Z,98023.69
2023-01-08T22:37:45.192Z,98022.25
2023-01-08T22:41:46.715Z,98017.97
2023-01-08T22:45:52.997Z,98009.13
2023-01-08T22:49:54.450Z,98004.53
2023-01-08T22:53:56.901Z,98007.63
2023-01-08T22:57:58.287Z,97999.56
2023-01-08T23:02:00.996Z,97988.28
2023-01-08T23:06:02.627Z,97990.16
2023-01-08T23:10:04.702Z,97978.56
2023-01-08T23:14:06.111Z,97976.47
2023-01-08T23:18:08.836Z,97966.44
2023-01-08T23:22:10.227Z,97978.56
2023-01-08T23:26:14.015Z,97961.84
2023-01-08T23:30:15.426Z,97960.22
2023-01-08T23:34:18.151Z,97962.41
2023-01-08T23:38:19.581Z,97963.59
2023-01-08T23:42:20.983Z,97945.09
2023-01-08T23:46:22.370Z,97945.09
2023-01-08T23:50:25.110Z,97944.75
2023-01-08T23:54:26.712Z,97933.94
2023-01-08T23:58:28.107Z,97932.59
